sensor_id;sensor_type;location;lat;lon;timestamp;pressure;altitude;pressure_sealevel;temperature
85302;BMP280;75707;46.948;7.410;2024-02-15T00:00:34;958.8123169;;;7.373046875
85302;BMP280;75707;46.948;7.410;2024-02-15T00:01:35;958.8629761;;;7.393188477
85302;BMP280;75707;46.948;7.410;2024-02-15T00:02:36;958.8569336;;;7.393188477
85302;BMP280;75707;46.948;7.410;2024-02-15T00:03:37;958.836731;;;7.423400879
85302;BMP280;75707;46.948;7.410;2024-02-15T00:04:38;958.8401489;;;7.453613281
85302;BMP280;75707;46.948;7.410;2024-02-15T00:05:39;958.857666;;;7.503967285
85302;BMP280;75707;46.948;7.410;2024-02-15T00:06:40;958.8878174;;;7.524108887
85302;BMP280;75707;46.948;7.410;2024-02-15T00:08:11;958.9064331;;;7.514038086
85302;BMP280;75707;46.948;7.410;2024-02-15T00:09:12;958.8825073;;;7.483825684
85302;BMP280;75707;46.948;7.410;2024-02-15T00:10:13;958.8911133;;;7.453613281
85302;BMP280;75707;46.948;7.410;2024-02-15T00:11:15;958.9431152;;;7.44354248
85302;BMP280;75707;46.948;7.410;2024-02-15T00:12:16;958.911377;;;7.423400879
85302;BMP280;75707;46.948;7.410;2024-02-15T00:13:17;958.9299927;;;7.44354248
85302;BMP280;75707;46.948;7.410;2024-02-15T00:14:18;958.90802;;;7.413330078
85302;BMP280;75707;46.948;7.410;2024-02-15T00:15:19;958.9191895;;;7.362976074
85302;BMP280;75707;46.948;7.410;2024-02-15T00:16:20;958.920166;;;7.322692871
85302;BMP280;75707;46.948;7.410;2024-02-15T00:17:21;958.9312744;;;7.30255127
85302;BMP280;75707;46.948;7.410;2024-02-15T00:18:22;958.9208374;;;7.272338867
85302;BMP280;75707;46.948;7.410;2024-02-15T00:19:23;958.8718872;;;7.292480469
85302;BMP280;75707;46.948;7.410;2024-02-15T00:20:25;958.9006958;;;7.272338867
85302;BMP280;75707;46.948;7.410;2024-02-15T00:21:25;958.8845215;;;7.262268066
85302;BMP280;75707;46.948;7.410;2024-02-15T00:22:26;958.8903809;;;7.272338867
85302;BMP280;75707;46.948;7.410;2024-02-15T00:23:27;958.887207;;;7.272338867
85302;BMP280;75707;46.948;7.410;2024-02-15T00:24:28;958.8657227;;;7.262268066
85302;BMP280;75707;46.948;7.410;2024-02-15T00:25:29;958.9035034;;;7.30255127
85302;BMP280;75707;46.948;7.410;2024-02-15T00:26:30;958.9160767;;;7.292480469
85302;BMP280;75707;46.948;7.410;2024-02-15T00:27:31;958.8825073;;;7.262268066
85302;BMP280;75707;46.948;7.410;2024-02-15T00:28:32;958.9004517;;;7.242126465
85302;BMP280;75707;46.948;7.410;2024-02-15T00:29:34;958.9368896;;;7.232055664
85302;BMP280;75707;46.948;7.410;2024-02-15T00:30:34;958.9579468;;;7.211914063
85302;BMP280;75707;46.948;7.410;2024-02-15T00:31:35;958.9481201;;;7.161560059
85302;BMP280;75707;46.948;7.410;2024-02-15T00:32:36;958.961731;;;7.161560059
85302;BMP280;75707;46.948;7.410;2024-02-15T00:33:37;958.9383545;;;7.151489258
85302;BMP280;75707;46.948;7.410;2024-02-15T00:34:39;958.9725952;;;7.151489258
85302;BMP280;75707;46.948;7.410;2024-02-15T00:35:40;959.0124512;;;7.151489258
85302;BMP280;75707;46.948;7.410;2024-02-15T00:37:11;958.9730225;;;7.141418457
85302;BMP280;75707;46.948;7.410;2024-02-15T00:38:12;959.0148315;;;7.151489258
85302;BMP280;75707;46.948;7.410;2024-02-15T00:39:13;959.010498;;;7.141418457
85302;BMP280;75707;46.948;7.410;2024-02-15T00:40:14;958.9936523;;;7.141418457
85302;BMP280;75707;46.948;7.410;2024-02-15T00:41:15;959.0109253;;;7.191772461
85302;BMP280;75707;46.948;7.410;2024-02-15T00:42:16;959.0134277;;;7.191772461
85302;BMP280;75707;46.948;7.410;2024-02-15T00:43:17;958.9943237;;;7.151489258
85302;BMP280;75707;46.948;7.410;2024-02-15T00:44:18;958.9743042;;;7.111206055
85302;BMP280;75707;46.948;7.410;2024-02-15T00:45:19;959.0093994;;;7.121276855
85302;BMP280;75707;46.948;7.410;2024-02-15T00:46:20;958.963623;;;7.070922852
85302;BMP280;75707;46.948;7.410;2024-02-15T00:47:20;959.0041504;;;7.070922852
85302;BMP280;75707;46.948;7.410;2024-02-15T00:48:22;959.0045166;;;7.05078125
85302;BMP280;75707;46.948;7.410;2024-02-15T00:49:23;959.0532837;;;7.070922852
85302;BMP280;75707;46.948;7.410;2024-02-15T00:50:24;958.9998169;;;7.05078125
85302;BMP280;75707;46.948;7.410;2024-02-15T00:51:24;959.022583;;;7.080993652
85302;BMP280;75707;46.948;7.410;2024-02-15T00:52:25;959.0168457;;;7.091064453
85302;BMP280;75707;46.948;7.410;2024-02-15T00:53:26;958.982666;;;7.05078125
85302;BMP280;75707;46.948;7.410;2024-02-15T00:54:27;958.9735718;;;7.05078125
85302;BMP280;75707;46.948;7.410;2024-02-15T00:55:28;958.9712524;;;7.091064453
85302;BMP280;75707;46.948;7.410;2024-02-15T00:56:29;959.0119019;;;7.080993652
85302;BMP280;75707;46.948;7.410;2024-02-15T00:57:30;959.0165405;;;7.080993652
85302;BMP280;75707;46.948;7.410;2024-02-15T00:58:31;958.9645386;;;7.070922852
85302;BMP280;75707;46.948;7.410;2024-02-15T00:59:31;958.9852905;;;7.070922852
85302;BMP280;75707;46.948;7.410;2024-02-15T01:00:32;958.9728394;;;7.05078125
85302;BMP280;75707;46.948;7.410;2024-02-15T01:01:33;958.9729614;;;7.05078125
85302;BMP280;75707;46.948;7.410;2024-02-15T01:02:34;958.9904175;;;7.040710449
85302;BMP280;75707;46.948;7.410;2024-02-15T01:03:35;958.96875;;;6.990356445
85302;BMP280;75707;46.948;7.410;2024-02-15T01:04:36;958.9415894;;;6.940002441
85302;BMP280;75707;46.948;7.410;2024-02-15T01:05:36;958.9069824;;;6.909790039
85302;BMP280;75707;46.948;7.410;2024-02-15T01:06:37;958.9188232;;;6.899719238
85302;BMP280;75707;46.948;7.410;2024-02-15T01:07:39;958.8674927;;;6.829223633
85302;BMP280;75707;46.948;7.410;2024-02-15T01:08:40;958.8276367;;;6.778869629
85302;BMP280;75707;46.948;7.410;2024-02-15T01:10:11;958.8504639;;;6.728515625
85302;BMP280;75707;46.948;7.410;2024-02-15T01:11:13;958.8395386;;;6.718444824
85302;BMP280;75707;46.948;7.410;2024-02-15T01:12:14;958.8847046;;;6.688232422
85302;BMP280;75707;46.948;7.410;2024-02-15T01:13:15;958.944519;;;6.688232422
85302;BMP280;75707;46.948;7.410;2024-02-15T01:14:16;958.9105225;;;6.688232422
85302;BMP280;75707;46.948;7.410;2024-02-15T01:15:17;958.9313354;;;6.647949219
85302;BMP280;75707;46.948;7.410;2024-02-15T01:16:18;958.8886108;;;6.678161621
85302;BMP280;75707;46.948;7.410;2024-02-15T01:17:19;958.87677;;;6.718444824
85302;BMP280;75707;46.948;7.410;2024-02-15T01:18:20;958.8468628;;;6.708374023
85302;BMP280;75707;46.948;7.410;2024-02-15T01:19:21;958.8460083;;;6.778869629
85302;BMP280;75707;46.948;7.410;2024-02-15T01:20:22;958.8560791;;;6.78894043
85302;BMP280;75707;46.948;7.410;2024-02-15T01:21:23;958.8587646;;;6.778869629
85302;BMP280;75707;46.948;7.410;2024-02-15T01:22:24;958.8156128;;;6.809082031
85302;BMP280;75707;46.948;7.410;2024-02-15T01:23:26;958.8086548;;;6.78894043
85302;BMP280;75707;46.948;7.410;2024-02-15T01:24:27;958.8234863;;;6.78894043
85302;BMP280;75707;46.948;7.410;2024-02-15T01:25:27;958.791748;;;6.778869629
85302;BMP280;75707;46.948;7.410;2024-02-15T01:26:29;958.8431396;;;6.748657227
85302;BMP280;75707;46.948;7.410;2024-02-15T01:27:29;958.8167725;;;6.758728027
85302;BMP280;75707;46.948;7.410;2024-02-15T01:28:30;958.8262329;;;6.748657227
85302;BMP280;75707;46.948;7.410;2024-02-15T01:29:31;958.807373;;;6.778869629
85302;BMP280;75707;46.948;7.410;2024-02-15T01:30:32;958.8323975;;;6.758728027
85302;BMP280;75707;46.948;7.410;2024-02-15T01:31:33;958.8182983;;;6.778869629
85302;BMP280;75707;46.948;7.410;2024-02-15T01:32:34;958.8309326;;;6.728515625
85302;BMP280;75707;46.948;7.410;2024-02-15T01:33:35;958.8300171;;;6.758728027
85302;BMP280;75707;46.948;7.410;2024-02-15T01:34:37;958.8895264;;;6.748657227
85302;BMP280;75707;46.948;7.410;2024-02-15T01:35:38;958.8995361;;;6.728515625
85302;BMP280;75707;46.948;7.410;2024-02-15T01:36:39;958.9321899;;;6.748657227
85302;BMP280;75707;46.948;7.410;2024-02-15T01:38:11;958.9234619;;;6.748657227
85302;BMP280;75707;46.948;7.410;2024-02-15T01:39:12;958.9188843;;;6.718444824
85302;BMP280;75707;46.948;7.410;2024-02-15T01:40:13;958.9525757;;;6.708374023
85302;BMP280;75707;46.948;7.410;2024-02-15T01:41:15;958.9385986;;;6.778869629
85302;BMP280;75707;46.948;7.410;2024-02-15T01:42:16;958.9243774;;;6.78894043
85302;BMP280;75707;46.948;7.410;2024-02-15T01:43:17;958.9522095;;;6.78894043
85302;BMP280;75707;46.948;7.410;2024-02-15T01:44:18;958.9545288;;;6.718444824
85302;BMP280;75707;46.948;7.410;2024-02-15T01:45:20;958.96521;;;6.708374023
85302;BMP280;75707;46.948;7.410;2024-02-15T01:46:21;958.951355;;;6.647949219
85302;BMP280;75707;46.948;7.410;2024-02-15T01:47:22;958.9051514;;;6.597595215
85302;BMP280;75707;46.948;7.410;2024-02-15T01:48:23;958.8865356;;;6.567382813
85302;BMP280;75707;46.948;7.410;2024-02-15T01:49:24;958.8620605;;;6.527099609
85302;BMP280;75707;46.948;7.410;2024-02-15T01:50:25;958.883606;;;6.476745605
85302;BMP280;75707;46.948;7.410;2024-02-15T01:51:26;958.8497925;;;6.416320801
85302;BMP280;75707;46.948;7.410;2024-02-15T01:52:27;958.7698364;;;6.396179199
85302;BMP280;75707;46.948;7.410;2024-02-15T01:53:28;958.8231201;;;6.386108398
85302;BMP280;75707;46.948;7.410;2024-02-15T01:54:29;958.8135986;;;6.376037598
85302;BMP280;75707;46.948;7.410;2024-02-15T01:55:30;958.8613892;;;6.345825195
85302;BMP280;75707;46.948;7.410;2024-02-15T01:56:32;958.8609619;;;6.315612793
85302;BMP280;75707;46.948;7.410;2024-02-15T01:57:33;958.87854;;;6.325683594
85302;BMP280;75707;46.948;7.410;2024-02-15T01:58:33;958.8225708;;;6.325683594
85302;BMP280;75707;46.948;7.410;2024-02-15T01:59:34;958.8499146;;;6.355895996
85302;BMP280;75707;46.948;7.410;2024-02-15T02:00:36;958.8456421;;;6.376037598
85302;BMP280;75707;46.948;7.410;2024-02-15T02:01:37;958.8546753;;;6.376037598
85302;BMP280;75707;46.948;7.410;2024-02-15T02:02:38;958.8615723;;;6.386108398
85302;BMP280;75707;46.948;7.410;2024-02-15T02:03:40;958.8453369;;;6.426391602
85302;BMP280;75707;46.948;7.410;2024-02-15T02:05:11;958.8098145;;;6.456604004
85302;BMP280;75707;46.948;7.410;2024-02-15T02:06:12;958.7993774;;;6.456604004
85302;BMP280;75707;46.948;7.410;2024-02-15T02:07:13;958.831543;;;6.527099609
85302;BMP280;75707;46.948;7.410;2024-02-15T02:08:14;958.8256226;;;6.506958008
85302;BMP280;75707;46.948;7.410;2024-02-15T02:09:15;958.7960815;;;6.527099609
85302;BMP280;75707;46.948;7.410;2024-02-15T02:10:17;958.8244019;;;6.506958008
85302;BMP280;75707;46.948;7.410;2024-02-15T02:11:17;958.805603;;;6.496887207
85302;BMP280;75707;46.948;7.410;2024-02-15T02:12:18;958.8290405;;;6.476745605
85302;BMP280;75707;46.948;7.410;2024-02-15T02:13:19;958.7977295;;;6.456604004
85302;BMP280;75707;46.948;7.410;2024-02-15T02:14:20;958.8104858;;;6.446533203
85302;BMP280;75707;46.948;7.410;2024-02-15T02:15:21;958.7868652;;;6.456604004
85302;BMP280;75707;46.948;7.410;2024-02-15T02:16:24;958.789917;;;6.456604004
85302;BMP280;75707;46.948;7.410;2024-02-15T02:17:24;958.779541;;;6.456604004
85302;BMP280;75707;46.948;7.410;2024-02-15T02:18:24;958.7857666;;;6.446533203
85302;BMP280;75707;46.948;7.410;2024-02-15T02:19:26;958.810791;;;6.426391602
85302;BMP280;75707;46.948;7.410;2024-02-15T02:20:27;958.7538452;;;6.416320801
85302;BMP280;75707;46.948;7.410;2024-02-15T02:21:28;958.7874756;;;6.386108398
85302;BMP280;75707;46.948;7.410;2024-02-15T02:22:29;958.776001;;;6.396179199
85302;BMP280;75707;46.948;7.410;2024-02-15T02:23:30;958.7723389;;;6.386108398
85302;BMP280;75707;46.948;7.410;2024-02-15T02:24:31;958.7906494;;;6.396179199
85302;BMP280;75707;46.948;7.410;2024-02-15T02:25:32;958.8167725;;;6.416320801
85302;BMP280;75707;46.948;7.410;2024-02-15T02:26:33;958.7508545;;;6.416320801
85302;BMP280;75707;46.948;7.410;2024-02-15T02:27:33;958.7593994;;;6.396179199
85302;BMP280;75707;46.948;7.410;2024-02-15T02:28:34;958.711731;;;6.396179199
85302;BMP280;75707;46.948;7.410;2024-02-15T02:29:35;958.7316895;;;6.426391602
85302;BMP280;75707;46.948;7.410;2024-02-15T02:30:36;958.6936035;;;6.426391602
85302;BMP280;75707;46.948;7.410;2024-02-15T02:31:36;958.7054443;;;6.416320801
85302;BMP280;75707;46.948;7.410;2024-02-15T02:32:37;958.7014771;;;6.416320801
85302;BMP280;75707;46.948;7.410;2024-02-15T02:33:38;958.6879883;;;6.386108398
85302;BMP280;75707;46.948;7.410;2024-02-15T02:35:09;958.6706543;;;6.376037598
85302;BMP280;75707;46.948;7.410;2024-02-15T02:36:10;958.6873169;;;6.386108398
85302;BMP280;75707;46.948;7.410;2024-02-15T02:37:10;958.6960449;;;6.386108398
85302;BMP280;75707;46.948;7.410;2024-02-15T02:38:12;958.6507568;;;6.376037598
85302;BMP280;75707;46.948;7.410;2024-02-15T02:39:14;958.7042236;;;6.325683594
85302;BMP280;75707;46.948;7.410;2024-02-15T02:40:16;958.6948242;;;6.355895996
85302;BMP280;75707;46.948;7.410;2024-02-15T02:41:17;958.6503296;;;6.345825195
85302;BMP280;75707;46.948;7.410;2024-02-15T02:42:17;958.6193848;;;6.295471191
85302;BMP280;75707;46.948;7.410;2024-02-15T02:43:18;958.6345215;;;6.27532959
85302;BMP280;75707;46.948;7.410;2024-02-15T02:44:19;958.6456299;;;6.27532959
85302;BMP280;75707;46.948;7.410;2024-02-15T02:45:20;958.6003418;;;6.265258789
85302;BMP280;75707;46.948;7.410;2024-02-15T02:46:21;958.5749512;;;6.27532959
85302;BMP280;75707;46.948;7.410;2024-02-15T02:47:23;958.6212769;;;6.265258789
85302;BMP280;75707;46.948;7.410;2024-02-15T02:48:24;958.5857544;;;6.245117188
85302;BMP280;75707;46.948;7.410;2024-02-15T02:49:25;958.5990601;;;6.174621582
85302;BMP280;75707;46.948;7.410;2024-02-15T02:50:26;958.5565796;;;6.194763184
85302;BMP280;75707;46.948;7.410;2024-02-15T02:51:28;958.5386963;;;6.174621582
85302;BMP280;75707;46.948;7.410;2024-02-15T02:52:29;958.5773315;;;6.214904785
85302;BMP280;75707;46.948;7.410;2024-02-15T02:53:30;958.5310059;;;6.174621582
85302;BMP280;75707;46.948;7.410;2024-02-15T02:54:30;958.5756226;;;6.194763184
85302;BMP280;75707;46.948;7.410;2024-02-15T02:55:32;958.543335;;;6.164550781
85302;BMP280;75707;46.948;7.410;2024-02-15T02:56:33;958.5443726;;;6.14440918
85302;BMP280;75707;46.948;7.410;2024-02-15T02:57:34;958.5968018;;;6.14440918
85302;BMP280;75707;46.948;7.410;2024-02-15T02:58:35;958.5427856;;;6.134338379
85302;BMP280;75707;46.948;7.410;2024-02-15T02:59:37;958.579834;;;6.134338379
85302;BMP280;75707;46.948;7.410;2024-02-15T03:00:37;958.5393677;;;6.14440918
85302;BMP280;75707;46.948;7.410;2024-02-15T03:01:38;958.5164185;;;6.164550781
85302;BMP280;75707;46.948;7.410;2024-02-15T03:03:10;958.5148315;;;6.194763184
85302;BMP280;75707;46.948;7.410;2024-02-15T03:04:11;958.4623413;;;6.164550781
85302;BMP280;75707;46.948;7.410;2024-02-15T03:05:13;958.4285889;;;6.174621582
85302;BMP280;75707;46.948;7.410;2024-02-15T03:06:14;958.4135742;;;6.164550781
85302;BMP280;75707;46.948;7.410;2024-02-15T03:07:15;958.4104614;;;6.164550781
85302;BMP280;75707;46.948;7.410;2024-02-15T03:08:16;958.3887329;;;6.174621582
85302;BMP280;75707;46.948;7.410;2024-02-15T03:09:17;958.4193726;;;6.194763184
85302;BMP280;75707;46.948;7.410;2024-02-15T03:10:17;958.3762207;;;6.174621582
85302;BMP280;75707;46.948;7.410;2024-02-15T03:11:18;958.3708496;;;6.174621582
85302;BMP280;75707;46.948;7.410;2024-02-15T03:12:20;958.4145508;;;6.194763184
85302;BMP280;75707;46.948;7.410;2024-02-15T03:13:21;958.3724976;;;6.194763184
85302;BMP280;75707;46.948;7.410;2024-02-15T03:14:21;958.3370972;;;6.174621582
85302;BMP280;75707;46.948;7.410;2024-02-15T03:15:22;958.3590698;;;6.14440918
85302;BMP280;75707;46.948;7.410;2024-02-15T03:16:23;958.3848267;;;6.063842773
85302;BMP280;75707;46.948;7.410;2024-02-15T03:17:24;958.4248657;;;6.02355957
85302;BMP280;75707;46.948;7.410;2024-02-15T03:18:25;958.4059448;;;6.033630371
85302;BMP280;75707;46.948;7.410;2024-02-15T03:19:27;958.3939819;;;6.01348877
85302;BMP280;75707;46.948;7.410;2024-02-15T03:20:27;958.3677368;;;6.033630371
85302;BMP280;75707;46.948;7.410;2024-02-15T03:21:28;958.3607178;;;6.02355957
85302;BMP280;75707;46.948;7.410;2024-02-15T03:22:28;958.3563843;;;6.033630371
85302;BMP280;75707;46.948;7.410;2024-02-15T03:23:29;958.3752441;;;6.063842773
85302;BMP280;75707;46.948;7.410;2024-02-15T03:24:31;958.3621826;;;6.114196777
85302;BMP280;75707;46.948;7.410;2024-02-15T03:25:31;958.3537598;;;6.134338379
85302;BMP280;75707;46.948;7.410;2024-02-15T03:26:32;958.369873;;;6.14440918
85302;BMP280;75707;46.948;7.410;2024-02-15T03:27:33;958.326416;;;6.214904785
85302;BMP280;75707;46.948;7.410;2024-02-15T03:28:35;958.3713989;;;6.235046387
85302;BMP280;75707;46.948;7.410;2024-02-15T03:29:36;958.3412476;;;6.204833984
85302;BMP280;75707;46.948;7.410;2024-02-15T03:30:37;958.4067383;;;6.214904785
85302;BMP280;75707;46.948;7.410;2024-02-15T03:31:37;958.4017334;;;6.164550781
85302;BMP280;75707;46.948;7.410;2024-02-15T03:33:09;958.3939209;;;6.063842773
85302;BMP280;75707;46.948;7.410;2024-02-15T03:34:10;958.4197388;;;6.033630371
85302;BMP280;75707;46.948;7.410;2024-02-15T03:35:11;958.3997803;;;5.993347168
85302;BMP280;75707;46.948;7.410;2024-02-15T03:36:12;958.4176636;;;5.983276367
85302;BMP280;75707;46.948;7.410;2024-02-15T03:37:13;958.401001;;;5.983276367
85302;BMP280;75707;46.948;7.410;2024-02-15T03:38:13;958.397522;;;5.963134766
85302;BMP280;75707;46.948;7.410;2024-02-15T03:39:14;958.3757935;;;5.983276367
85302;BMP280;75707;46.948;7.410;2024-02-15T03:40:15;958.430542;;;5.953063965
85302;BMP280;75707;46.948;7.410;2024-02-15T03:41:16;958.4118042;;;5.932922363
85302;BMP280;75707;46.948;7.410;2024-02-15T03:42:16;958.4371948;;;5.922851563
85302;BMP280;75707;46.948;7.410;2024-02-15T03:43:18;958.411377;;;5.922851563
85302;BMP280;75707;46.948;7.410;2024-02-15T03:44:19;958.4841919;;;5.902709961
85302;BMP280;75707;46.948;7.410;2024-02-15T03:45:20;958.4212646;;;5.882568359
85302;BMP280;75707;46.948;7.410;2024-02-15T03:46:21;958.4348145;;;5.882568359
85302;BMP280;75707;46.948;7.410;2024-02-15T03:47:21;958.4534302;;;5.882568359
85302;BMP280;75707;46.948;7.410;2024-02-15T03:48:22;958.4668579;;;5.922851563
85302;BMP280;75707;46.948;7.410;2024-02-15T03:49:23;958.4025269;;;5.932922363
85302;BMP280;75707;46.948;7.410;2024-02-15T03:50:24;958.4489746;;;5.963134766
85302;BMP280;75707;46.948;7.410;2024-02-15T03:51:25;958.4143066;;;5.953063965
85302;BMP280;75707;46.948;7.410;2024-02-15T03:52:26;958.4425049;;;5.932922363
85302;BMP280;75707;46.948;7.410;2024-02-15T03:53:27;958.390564;;;5.902709961
85302;BMP280;75707;46.948;7.410;2024-02-15T03:54:28;958.4285889;;;5.872497559
85302;BMP280;75707;46.948;7.410;2024-02-15T03:55:29;958.3880615;;;5.842285156
85302;BMP280;75707;46.948;7.410;2024-02-15T03:56:30;958.3898315;;;5.842285156
85302;BMP280;75707;46.948;7.410;2024-02-15T03:57:31;958.392334;;;5.832214355
85302;BMP280;75707;46.948;7.410;2024-02-15T03:58:32;958.3649902;;;5.832214355
85302;BMP280;75707;46.948;7.410;2024-02-15T03:59:33;958.3908081;;;5.842285156
85302;BMP280;75707;46.948;7.410;2024-02-15T04:00:34;958.3546143;;;5.832214355
85302;BMP280;75707;46.948;7.410;2024-02-15T04:01:35;958.3708496;;;5.872497559
85302;BMP280;75707;46.948;7.410;2024-02-15T04:02:36;958.335022;;;5.872497559
85302;BMP280;75707;46.948;7.410;2024-02-15T04:03:37;958.3273315;;;5.902709961
85302;BMP280;75707;46.948;7.410;2024-02-15T04:04:38;958.3735962;;;5.922851563
85302;BMP280;75707;46.948;7.410;2024-02-15T04:06:09;958.296875;;;5.983276367
85302;BMP280;75707;46.948;7.410;2024-02-15T04:07:10;958.2979736;;;5.953063965
85302;BMP280;75707;46.948;7.410;2024-02-15T04:08:11;958.3370972;;;5.983276367
85302;BMP280;75707;46.948;7.410;2024-02-15T04:09:12;958.2770386;;;5.993347168
85302;BMP280;75707;46.948;7.410;2024-02-15T04:10:14;958.3175049;;;6.063842773
85302;BMP280;75707;46.948;7.410;2024-02-15T04:11:14;958.3110352;;;6.063842773
85302;BMP280;75707;46.948;7.410;2024-02-15T04:12:15;958.324585;;;6.083984375
85302;BMP280;75707;46.948;7.410;2024-02-15T04:13:16;958.3809204;;;6.063842773
85302;BMP280;75707;46.948;7.410;2024-02-15T04:14:17;958.3588867;;;6.053771973
85302;BMP280;75707;46.948;7.410;2024-02-15T04:15:17;958.3068848;;;6.14440918
85302;BMP280;75707;46.948;7.410;2024-02-15T04:16:18;958.2965698;;;6.104125977
85302;BMP280;75707;46.948;7.410;2024-02-15T04:17:19;958.3190918;;;6.134338379
85302;BMP280;75707;46.948;7.410;2024-02-15T04:18:20;958.3013916;;;6.114196777
85302;BMP280;75707;46.948;7.410;2024-02-15T04:19:21;958.2860107;;;6.053771973
85302;BMP280;75707;46.948;7.410;2024-02-15T04:20:22;958.3148193;;;5.993347168
85302;BMP280;75707;46.948;7.410;2024-02-15T04:21:23;958.2902832;;;5.872497559
85302;BMP280;75707;46.948;7.410;2024-02-15T04:22:24;958.2775269;;;5.812072754
85302;BMP280;75707;46.948;7.410;2024-02-15T04:23:25;958.2855225;;;5.802001953
85302;BMP280;75707;46.948;7.410;2024-02-15T04:24:25;958.3148193;;;5.731506348
85302;BMP280;75707;46.948;7.410;2024-02-15T04:25:27;958.2426758;;;5.691223145
85302;BMP280;75707;46.948;7.410;2024-02-15T04:26:28;958.2640381;;;5.661010742
85302;BMP280;75707;46.948;7.410;2024-02-15T04:27:29;958.3170166;;;5.661010742
85302;BMP280;75707;46.948;7.410;2024-02-15T04:28:30;958.3078613;;;5.650939941
85302;BMP280;75707;46.948;7.410;2024-02-15T04:29:31;958.326416;;;5.671081543
85302;BMP280;75707;46.948;7.410;2024-02-15T04:30:32;958.2888794;;;5.661010742
85302;BMP280;75707;46.948;7.410;2024-02-15T04:31:33;958.2949829;;;5.661010742
85302;BMP280;75707;46.948;7.410;2024-02-15T04:32:33;958.2550049;;;5.661010742
85302;BMP280;75707;46.948;7.410;2024-02-15T04:33:35;958.2398682;;;5.671081543
85302;BMP280;75707;46.948;7.410;2024-02-15T04:34:35;958.2528687;;;5.691223145
85302;BMP280;75707;46.948;7.410;2024-02-15T04:35:36;958.2176514;;;5.701293945
85302;BMP280;75707;46.948;7.410;2024-02-15T04:36:37;958.2764282;;;5.751647949
85302;BMP280;75707;46.948;7.410;2024-02-15T04:38:09;958.2966919;;;5.802001953
85302;BMP280;75707;46.948;7.410;2024-02-15T04:39:10;958.2998657;;;5.852355957
85302;BMP280;75707;46.948;7.410;2024-02-15T04:40:11;958.3414307;;;5.882568359
85302;BMP280;75707;46.948;7.410;2024-02-15T04:41:12;958.2739258;;;5.902709961
85302;BMP280;75707;46.948;7.410;2024-02-15T04:42:13;958.3051758;;;5.932922363
85302;BMP280;75707;46.948;7.410;2024-02-15T04:43:14;958.305481;;;5.983276367
85302;BMP280;75707;46.948;7.410;2024-02-15T04:44:15;958.2901001;;;5.983276367
85302;BMP280;75707;46.948;7.410;2024-02-15T04:45:16;958.2684326;;;6.02355957
85302;BMP280;75707;46.948;7.410;2024-02-15T04:46:17;958.2723389;;;6.02355957
85302;BMP280;75707;46.948;7.410;2024-02-15T04:47:18;958.2545166;;;6.083984375
85302;BMP280;75707;46.948;7.410;2024-02-15T04:48:19;958.2927246;;;6.063842773
85302;BMP280;75707;46.948;7.410;2024-02-15T04:49:20;958.2753906;;;5.993347168
85302;BMP280;75707;46.948;7.410;2024-02-15T04:50:20;958.2598267;;;6.01348877
85302;BMP280;75707;46.948;7.410;2024-02-15T04:51:21;958.2507935;;;5.993347168
85302;BMP280;75707;46.948;7.410;2024-02-15T04:52:22;958.2520142;;;5.963134766
85302;BMP280;75707;46.948;7.410;2024-02-15T04:53:23;958.2424927;;;6.01348877
85302;BMP280;75707;46.948;7.410;2024-02-15T04:54:24;958.2650146;;;6.02355957
85302;BMP280;75707;46.948;7.410;2024-02-15T04:55:25;958.2750244;;;6.114196777
85302;BMP280;75707;46.948;7.410;2024-02-15T04:56:25;958.2316284;;;6.104125977
85302;BMP280;75707;46.948;7.410;2024-02-15T04:57:26;958.2485962;;;6.134338379
85302;BMP280;75707;46.948;7.410;2024-02-15T04:58:27;958.2176514;;;6.134338379
85302;BMP280;75707;46.948;7.410;2024-02-15T04:59:28;958.2236938;;;6.164550781
85302;BMP280;75707;46.948;7.410;2024-02-15T05:00:28;958.2160034;;;6.204833984
85302;BMP280;75707;46.948;7.410;2024-02-15T05:01:29;958.1795044;;;6.235046387
85302;BMP280;75707;46.948;7.410;2024-02-15T05:02:30;958.2134399;;;6.245117188
85302;BMP280;75707;46.948;7.410;2024-02-15T05:03:31;958.2042236;;;6.235046387
85302;BMP280;75707;46.948;7.410;2024-02-15T05:04:32;958.2111206;;;6.245117188
85302;BMP280;75707;46.948;7.410;2024-02-15T05:05:32;958.1812744;;;6.245117188
85302;BMP280;75707;46.948;7.410;2024-02-15T05:06:33;958.2008057;;;6.235046387
85302;BMP280;75707;46.948;7.410;2024-02-15T05:07:34;958.1921997;;;6.27532959
85302;BMP280;75707;46.948;7.410;2024-02-15T05:08:35;958.1605225;;;6.265258789
85302;BMP280;75707;46.948;7.410;2024-02-15T05:09:35;958.1696777;;;6.265258789
85302;BMP280;75707;46.948;7.410;2024-02-15T05:10:37;958.1417236;;;6.204833984
85302;BMP280;75707;46.948;7.410;2024-02-15T05:12:08;958.1515503;;;6.204833984
85302;BMP280;75707;46.948;7.410;2024-02-15T05:13:10;958.1760864;;;6.245117188
85302;BMP280;75707;46.948;7.410;2024-02-15T05:14:11;958.199707;;;6.245117188
85302;BMP280;75707;46.948;7.410;2024-02-15T05:15:12;958.1815796;;;6.235046387
85302;BMP280;75707;46.948;7.410;2024-02-15T05:16:13;958.1456299;;;6.235046387
85302;BMP280;75707;46.948;7.410;2024-02-15T05:17:13;958.1384888;;;6.27532959